Time;durP1;ratioP1;P1;durP2;ratioP2;P2;SDS_P1;SDS_P2;PMS_P1;PMS_P2;Temp;Humidity;BMP_temperature;BMP_pressure;BME280_temperature;BME280_humidity;BME280_pressure;Samples;Min_cycle;Max_cycle;Signal;HPM_P1;HPM_P2
2021/06/21 00:00:00;;;;;;;5.20;1.90;;;20.60;99.90;;;;;;5056318;28;20456;-56
2021/06/21 00:02:26;;;;;;;8.10;2.10;;;20.70;99.90;;;;;;5055449;28;20390;-53
2021/06/21 00:04:54;;;;;;;6.00;1.83;;;20.70;99.90;;;;;;5055895;28;20401;-56
2021/06/21 00:07:20;;;;;;;5.87;1.97;;;20.60;99.90;;;;;;5056516;28;20778;-56
2021/06/21 00:09:46;;;;;;;3.60;1.80;;;20.60;99.90;;;;;;5056282;28;20909;-57
2021/06/21 00:12:13;;;;;;;6.73;2.10;;;20.60;99.90;;;;;;5056051;28;20404;-57
2021/06/21 00:14:39;;;;;;;7.77;2.00;;;20.60;99.90;;;;;;5056631;28;20401;-56
2021/06/21 00:17:05;;;;;;;3.77;1.40;;;20.60;99.90;;;;;;5055948;28;20552;-55
2021/06/21 00:19:31;;;;;;;5.70;2.47;;;20.70;99.90;;;;;;5055481;28;20401;-57
2021/06/21 00:21:58;;;;;;;4.70;1.90;;;20.60;99.90;;;;;;5055902;28;20897;-56
2021/06/21 00:24:24;;;;;;;4.27;1.60;;;20.70;99.90;;;;;;5055854;28;20213;-56
2021/06/21 00:26:51;;;;;;;5.70;2.63;;;20.70;99.90;;;;;;5055779;28;20415;-52
2021/06/21 00:29:17;;;;;;;4.90;2.20;;;20.70;99.90;;;;;;5055714;28;20404;-55
2021/06/21 00:31:43;;;;;;;5.50;1.97;;;20.70;99.90;;;;;;5055540;28;20456;-56
2021/06/21 00:34:09;;;;;;;6.00;2.43;;;20.70;99.90;;;;;;5055405;28;20427;-56
2021/06/21 00:36:35;;;;;;;3.50;1.70;;;20.80;99.90;;;;;;5055590;28;20163;-56
2021/06/21 00:39:01;;;;;;;5.00;2.07;;;20.80;99.90;;;;;;5054747;28;20615;-51
2021/06/21 00:41:26;;;;;;;6.50;2.17;;;20.80;99.90;;;;;;5055523;28;20197;-57
2021/06/21 00:43:52;;;;;;;4.53;2.10;;;20.90;99.90;;;;;;5056043;28;20432;-52
2021/06/21 00:46:18;;;;;;;5.70;2.40;;;20.80;99.90;;;;;;5055583;28;20205;-53
2021/06/21 00:48:43;;;;;;;4.90;1.80;;;20.70;99.90;;;;;;5055786;28;20209;-56
2021/06/21 00:51:10;;;;;;;10.23;2.53;;;20.70;99.90;;;;;;5055547;28;20605;-53
2021/06/21 00:53:36;;;;;;;8.97;2.27;;;20.50;99.90;;;;;;5055074;28;20166;-52
2021/06/21 00:56:02;;;;;;;7.73;2.50;;;20.30;99.90;;;;;;5054849;28;20788;-53
2021/06/21 00:58:29;;;;;;;9.10;2.43;;;20.20;99.90;;;;;;5054737;28;20425;-54
2021/06/21 01:00:55;;;;;;;5.20;2.93;;;19.90;99.90;;;;;;5055125;28;20818;-53
2021/06/21 01:03:21;;;;;;;7.87;2.90;;;19.60;99.90;;;;;;5055348;28;20455;-53
2021/06/21 01:05:47;;;;;;;7.73;2.73;;;19.70;99.90;;;;;;5055333;28;20439;-55
2021/06/21 01:08:13;;;;;;;8.30;3.27;;;19.80;99.90;;;;;;5054441;28;20433;-56
2021/06/21 01:10:42;;;;;;;7.97;2.67;;;19.90;99.90;;;;;;5054993;28;20449;-55
2021/06/21 01:13:26;;;;;;;9.50;2.60;;;19.90;99.90;;;;;;5055339;28;20567;-55
2021/06/21 01:16:22;;;;;;;6.90;2.30;;;20.10;99.90;;;;;;5057598;28;20947;-55
2021/06/21 01:18:54;;;;;;;6.90;2.60;;;20.20;99.90;;;;;;5055425;28;20389;-56
2021/06/21 01:21:35;;;;;;;4.10;1.97;;;20.00;99.90;;;;;;5054715;28;20416;-51
2021/06/21 01:24:10;;;;;;;4.90;2.40;;;20.10;99.90;;;;;;5054305;28;20517;-56
2021/06/21 01:26:43;;;;;;;4.63;1.97;;;20.20;99.90;;;;;;5054630;28;20923;-57
2021/06/21 01:29:45;;;;;;;12.53;3.00;;;20.30;99.90;;;;;;5046733;28;20410;-53
2021/06/21 01:32:16;;;;;;;5.67;2.80;;;20.00;99.90;;;;;;5035066;28;20394;-53
2021/06/21 01:34:50;;;;;;;9.83;2.50;;;20.20;99.90;;;;;;5035293;28;20398;-57
2021/06/21 01:37:17;;;;;;;12.03;2.77;;;20.30;99.90;;;;;;5034584;28;20432;-54
2021/06/21 01:39:46;;;;;;;9.80;2.90;;;20.30;99.90;;;;;;5034234;28;20478;-53
2021/06/21 01:42:15;;;;;;;5.40;1.83;;;20.20;99.90;;;;;;5035288;28;20902;-57
2021/06/21 01:44:52;;;;;;;7.13;1.90;;;19.90;99.90;;;;;;5034717;28;20418;-57
2021/06/21 01:47:18;;;;;;;7.83;2.40;;;19.90;99.90;;;;;;5034715;28;20386;-56
2021/06/21 01:49:45;;;;;;;7.90;2.50;;;19.90;99.90;;;;;;5034144;28;20414;-55
2021/06/21 01:52:14;;;;;;;7.73;2.40;;;19.80;99.90;;;;;;5034568;28;20505;-57
2021/06/21 01:54:47;;;;;;;7.53;2.90;;;20.00;99.90;;;;;;5035685;28;20417;-56
2021/06/21 01:57:18;;;;;;;7.90;2.53;;;20.10;99.90;;;;;;5054713;28;20752;-55
2021/06/21 01:59:48;;;;;;;7.17;2.40;;;20.20;99.90;;;;;;5054169;28;20393;-56
2021/06/21 02:02:15;;;;;;;9.40;2.70;;;20.00;99.90;;;;;;5054003;28;20389;-55
2021/06/21 02:04:42;;;;;;;5.90;2.33;;;20.10;99.90;;;;;;5053901;28;20441;-55
2021/06/21 02:07:10;;;;;;;7.10;2.70;;;20.00;99.90;;;;;;5053918;28;20415;-56
2021/06/21 02:09:36;;;;;;;9.50;3.00;;;20.00;99.90;;;;;;5053222;28;20433;-57
2021/06/21 02:12:03;;;;;;;5.33;2.43;;;20.10;99.90;;;;;;5053474;28;20444;-57
2021/06/21 02:14:31;;;;;;;10.37;2.50;;;20.00;99.90;;;;;;5054125;28;20820;-56
2021/06/21 02:16:58;;;;;;;9.60;2.30;;;20.00;99.90;;;;;;5054604;28;20440;-55
2021/06/21 02:19:26;;;;;;;5.17;2.30;;;20.00;99.90;;;;;;5053893;28;20408;-57
2021/06/21 02:21:52;;;;;;;7.03;2.67;;;20.10;99.90;;;;;;5053981;28;20409;-55
2021/06/21 02:24:18;;;;;;;8.67;2.17;;;20.10;99.90;;;;;;5052381;28;20486;-56
2021/06/21 02:26:47;;;;;;;10.10;2.40;;;20.20;99.90;;;;;;5053549;28;20405;-55
2021/06/21 02:29:18;;;;;;;4.60;2.23;;;20.20;99.90;;;;;;5053516;28;20984;-57
2021/06/21 02:31:45;;;;;;;8.73;2.27;;;20.20;99.90;;;;;;5053418;28;20451;-58
2021/06/21 02:34:11;;;;;;;3.77;2.00;;;20.20;99.90;;;;;;5053792;28;20401;-58
2021/06/21 02:36:36;;;;;;;7.80;2.83;;;20.20;99.90;;;;;;5053410;28;20924;-56
2021/06/21 02:39:05;;;;;;;3.43;2.03;;;20.20;99.90;;;;;;5053078;28;20197;-53
2021/06/21 02:41:30;;;;;;;7.77;2.43;;;20.20;99.90;;;;;;5053323;28;20324;-53
2021/06/21 02:43:56;;;;;;;5.57;2.17;;;20.20;99.90;;;;;;5053311;28;20464;-53
2021/06/21 02:46:22;;;;;;;6.23;2.23;;;20.20;99.90;;;;;;5053953;28;20166;-52
2021/06/21 02:48:47;;;;;;;7.80;2.77;;;20.00;99.90;;;;;;5054055;28;20177;-57
2021/06/21 02:51:19;;;;;;;7.93;2.87;;;19.90;99.90;;;;;;5053207;28;20194;-56
2021/06/21 02:54:16;;;;;;;4.60;2.33;;;19.90;99.90;;;;;;5052945;28;20262;-56
2021/06/21 02:56:49;;;;;;;7.80;3.03;;;19.80;99.90;;;;;;5053173;28;20906;-54
2021/06/21 02:59:20;;;;;;;5.83;2.43;;;19.80;99.90;;;;;;5053449;28;20420;-56
2021/06/21 03:01:50;;;;;;;5.30;2.60;;;19.90;99.90;;;;;;5076303;23;20483;-57
2021/06/21 03:04:18;;;;;;;9.37;2.70;;;20.00;99.90;;;;;;5073334;28;20400;-58
2021/06/21 03:06:46;;;;;;;10.60;2.60;;;19.90;99.90;;;;;;5073709;28;20540;-58
2021/06/21 03:09:14;;;;;;;6.10;2.63;;;19.90;99.90;;;;;;5072645;28;20407;-57
2021/06/21 03:11:42;;;;;;;5.57;2.57;;;20.00;99.90;;;;;;5073024;28;20530;-58
2021/06/21 03:14:09;;;;;;;7.67;2.90;;;20.10;99.90;;;;;;5073063;28;20404;-58
2021/06/21 03:16:35;;;;;;;5.50;2.60;;;20.10;99.90;;;;;;5055201;28;20541;-58
2021/06/21 03:19:01;;;;;;;6.40;2.43;;;20.00;99.90;;;;;;5073069;28;20486;-57
2021/06/21 03:21:26;;;;;;;5.93;2.13;;;20.00;99.90;;;;;;5074015;28;20420;-57
2021/06/21 03:23:56;;;;;;;8.47;2.77;;;19.80;99.90;;;;;;5086240;28;20452;-58
2021/06/21 03:26:28;;;;;;;9.70;3.00;;;19.90;99.90;;;;;;5097397;28;20180;-57
2021/06/21 03:28:54;;;;;;;7.87;2.90;;;19.90;99.90;;;;;;5097788;28;20764;-58
2021/06/21 03:31:21;;;;;;;5.70;2.20;;;19.90;99.90;;;;;;5097159;28;20482;-57
2021/06/21 03:33:47;;;;;;;7.43;3.40;;;19.80;99.90;;;;;;5097485;28;20410;-58
2021/06/21 03:36:13;;;;;;;4.83;2.30;;;19.70;99.90;;;;;;5097278;28;20395;-57
2021/06/21 03:38:39;;;;;;;7.27;2.47;;;19.80;99.90;;;;;;5096782;28;20490;-58
2021/06/21 03:41:05;;;;;;;7.27;2.50;;;19.80;99.90;;;;;;5081419;28;20252;-56
2021/06/21 03:43:34;;;;;;;7.97;2.50;;;19.90;99.90;;;;;;5076803;28;20483;-57
2021/06/21 03:46:02;;;;;;;8.70;3.10;;;19.90;99.90;;;;;;5076940;28;20811;-56
2021/06/21 03:48:28;;;;;;;8.03;2.50;;;19.80;99.90;;;;;;5075891;28;20823;-58
2021/06/21 03:50:55;;;;;;;5.60;2.00;;;19.60;99.90;;;;;;5076510;28;20454;-57
2021/06/21 03:53:24;;;;;;;4.10;2.30;;;19.50;99.90;;;;;;5076925;28;20404;-58
2021/06/21 03:55:50;;;;;;;7.40;3.33;;;19.50;99.90;;;;;;5076927;28;20737;-57
2021/06/21 03:58:17;;;;;;;4.80;2.70;;;19.60;99.90;;;;;;5075561;28;20442;-58
2021/06/21 04:00:44;;;;;;;5.83;2.40;;;19.70;99.90;;;;;;5076488;28;20158;-58
2021/06/21 04:03:10;;;;;;;8.80;2.80;;;19.80;99.90;;;;;;5076240;28;20441;-56
2021/06/21 04:05:37;;;;;;;7.10;2.67;;;19.90;99.90;;;;;;5074997;28;20924;-58
2021/06/21 04:08:08;;;;;;;4.57;1.90;;;20.10;99.90;;;;;;5076277;28;20415;-58
2021/06/21 04:10:35;;;;;;;9.10;3.07;;;20.10;99.90;;;;;;5075178;28;20447;-57
2021/06/21 04:13:01;;;;;;;7.67;2.60;;;20.20;99.90;;;;;;5076113;28;20420;-58
2021/06/21 04:15:33;;;;;;;4.50;2.43;;;20.20;99.90;;;;;;5076476;28;20400;-57
2021/06/21 04:18:01;;;;;;;4.30;2.00;;;20.30;99.90;;;;;;5076434;28;20569;-58
2021/06/21 04:20:28;;;;;;;7.47;2.27;;;20.40;99.90;;;;;;5071211;28;20551;-58
2021/06/21 04:22:54;;;;;;;9.27;2.33;;;20.30;99.90;;;;;;5065020;28;20425;-58
2021/06/21 04:25:20;;;;;;;6.07;2.00;;;20.30;99.90;;;;;;5056147;28;20419;-58
2021/06/21 04:27:47;;;;;;;5.07;2.37;;;20.40;99.90;;;;;;5056325;28;20401;-58
2021/06/21 04:30:15;;;;;;;8.87;3.57;;;20.30;99.90;;;;;;5056113;28;20805;-58
2021/06/21 04:32:41;;;;;;;3.27;2.10;;;20.10;99.90;;;;;;5055113;28;20433;-57
2021/06/21 04:35:11;;;;;;;8.20;2.37;;;20.00;99.90;;;;;;5055113;28;20459;-57
2021/06/21 04:37:37;;;;;;;6.80;2.20;;;19.80;99.90;;;;;;5038729;28;20402;-58
2021/06/21 04:40:05;;;;;;;6.80;2.20;;;19.70;99.90;;;;;;5055825;28;20760;-57
2021/06/21 04:42:30;;;;;;;8.50;2.40;;;19.50;99.90;;;;;;5073217;28;20440;-58
2021/06/21 04:44:56;;;;;;;5.40;2.27;;;19.50;99.90;;;;;;5075990;28;20450;-58
2021/06/21 04:47:24;;;;;;;4.87;2.10;;;19.40;99.90;;;;;;5075755;28;20168;-58
2021/06/21 04:49:54;;;;;;;8.37;2.50;;;19.40;99.90;;;;;;5075220;28;20173;-57
2021/06/21 04:52:22;;;;;;;7.60;2.57;;;19.50;99.90;;;;;;5075666;28;20476;-58
2021/06/21 04:54:49;;;;;;;5.50;2.17;;;19.60;99.90;;;;;;5075536;28;20388;-57
2021/06/21 04:57:15;;;;;;;4.33;2.03;;;19.80;99.90;;;;;;5075115;28;20425;-59
2021/06/21 04:59:40;;;;;;;6.73;3.20;;;19.70;99.90;;;;;;5075428;28;20400;-59
2021/06/21 05:02:06;;;;;;;7.20;2.97;;;19.70;99.90;;;;;;5075332;28;20436;-59
2021/06/21 05:04:31;;;;;;;4.80;2.20;;;19.60;99.90;;;;;;5075224;28;20631;-58
2021/06/21 05:06:57;;;;;;;5.47;2.23;;;19.60;99.90;;;;;;5075518;28;20166;-59
2021/06/21 05:09:23;;;;;;;11.27;2.57;;;19.60;99.90;;;;;;5075832;28;20166;-55
2021/06/21 05:11:48;;;;;;;6.73;2.33;;;19.60;99.90;;;;;;5074987;28;20284;-58
2021/06/21 05:14:14;;;;;;;9.63;2.80;;;19.70;99.90;;;;;;5074624;28;20178;-55
2021/06/21 05:16:40;;;;;;;7.47;2.60;;;19.70;99.90;;;;;;5078705;28;20193;-57
2021/06/21 05:19:06;;;;;;;5.13;2.13;;;19.80;99.90;;;;;;5074967;28;20158;-57
2021/06/21 05:21:33;;;;;;;7.33;2.33;;;19.80;99.90;;;;;;5075293;28;20516;-58
2021/06/21 05:23:59;;;;;;;6.33;2.13;;;20.00;99.90;;;;;;5074976;28;20404;-59
2021/06/21 05:26:25;;;;;;;7.83;2.57;;;20.20;99.90;;;;;;5074681;28;20404;-59
2021/06/21 05:28:50;;;;;;;5.27;1.70;;;20.10;99.90;;;;;;5074395;28;20458;-59
2021/06/21 05:31:16;;;;;;;5.97;2.17;;;20.50;99.90;;;;;;5074359;28;20247;-59
2021/06/21 05:33:43;;;;;;;6.70;2.63;;;20.60;99.90;;;;;;5074537;28;20277;-59
2021/06/21 05:36:09;;;;;;;4.37;1.93;;;20.60;99.90;;;;;;5074367;28;20162;-58
2021/06/21 05:38:35;;;;;;;5.00;2.07;;;20.80;99.90;;;;;;5074442;28;20397;-59
2021/06/21 05:41:01;;;;;;;7.37;1.90;;;21.00;99.90;;;;;;5074500;28;20892;-59
2021/06/21 05:43:27;;;;;;;4.13;1.77;;;21.00;99.90;;;;;;5074000;28;20419;-59
2021/06/21 05:45:53;;;;;;;4.37;2.00;;;21.00;99.90;;;;;;5056255;28;20540;-59
2021/06/21 05:48:19;;;;;;;6.97;2.27;;;21.00;99.90;;;;;;5073449;28;20537;-58
2021/06/21 05:50:45;;;;;;;4.63;1.70;;;21.20;99.90;;;;;;5074063;28;20451;-57
2021/06/21 05:53:10;;;;;;;5.43;1.87;;;21.30;99.90;;;;;;5074405;28;20193;-57
2021/06/21 05:55:36;;;;;;;30.93;27.63;;;21.40;99.90;;;;;;5074719;28;20166;-57
2021/06/21 05:58:02;;;;;;;5.67;2.20;;;21.50;99.90;;;;;;5074490;28;20587;-57
2021/06/21 06:00:28;;;;;;;6.37;1.93;;;21.60;99.90;;;;;;5074420;28;20170;-57
2021/06/21 06:02:53;;;;;;;8.43;2.80;;;21.60;99.90;;;;;;5074319;28;20213;-58
2021/06/21 06:05:20;;;;;;;6.07;2.13;;;21.40;99.90;;;;;;5073993;28;20182;-57
2021/06/21 06:07:45;;;;;;;5.23;2.10;;;21.40;99.90;;;;;;5073590;28;20278;-56
2021/06/21 06:10:12;;;;;;;7.33;2.30;;;21.40;99.90;;;;;;5073661;28;20507;-59
2021/06/21 06:12:37;;;;;;;4.23;1.80;;;21.20;99.90;;;;;;5073233;28;20277;-58
2021/06/21 06:15:04;;;;;;;5.80;1.80;;;21.30;99.90;;;;;;5073269;28;20923;-57
2021/06/21 06:17:30;;;;;;;4.80;2.00;;;21.50;99.90;;;;;;5073479;28;20645;-57
2021/06/21 06:19:55;;;;;;;4.40;2.40;;;21.60;99.90;;;;;;5073561;28;20401;-56
2021/06/21 06:22:21;;;;;;;4.00;1.87;;;21.80;99.90;;;;;;5073322;28;20242;-59
2021/06/21 06:24:47;;;;;;;6.17;1.50;;;21.80;99.90;;;;;;5074279;28;20530;-57
2021/06/21 06:27:13;;;;;;;6.80;2.07;;;22.00;99.90;;;;;;5073391;28;20166;-54
2021/06/21 06:29:38;;;;;;;7.70;1.87;;;22.20;99.90;;;;;;5073071;28;20215;-57
2021/06/21 06:32:05;;;;;;;5.00;1.90;;;22.30;99.90;;;;;;5073307;28;20206;-59
2021/06/21 06:34:31;;;;;;;5.23;2.00;;;22.30;99.90;;;;;;5073170;28;20166;-58
2021/06/21 06:36:57;;;;;;;8.90;2.37;;;22.30;99.90;;;;;;5074142;28;20818;-59
2021/06/21 06:39:23;;;;;;;7.43;2.50;;;22.20;99.90;;;;;;5073195;28;20190;-59
2021/06/21 06:41:48;;;;;;;9.23;2.37;;;22.10;99.90;;;;;;5073405;28;20509;-57
2021/06/21 06:44:14;;;;;;;4.60;1.80;;;22.10;99.90;;;;;;5072645;28;20499;-59
2021/06/21 06:46:40;;;;;;;4.37;3.50;;;22.40;99.90;;;;;;5073204;28;20174;-55
2021/06/21 06:49:06;;;;;;;9.50;2.40;;;22.20;99.90;;;;;;5073383;28;20662;-58
2021/06/21 06:51:54;;;;;;;5.10;2.07;;;22.30;99.90;;;;;;5073241;28;20496;-56
2021/06/21 06:57:00;;;;;;;2.93;1.43;;;22.50;99.90;;;;;;5072879;28;20407;-58
2021/06/21 06:59:29;;;;;;;4.37;1.80;;;22.80;99.90;;;;;;5072599;28;20392;-57
2021/06/21 07:01:56;;;;;;;3.50;1.73;;;22.90;99.90;;;;;;5072976;28;20521;-58
2021/06/21 07:04:21;;;;;;;5.10;2.27;;;22.80;99.90;;;;;;5072991;28;20443;-59
2021/06/21 07:06:47;;;;;;;5.00;2.40;;;22.80;99.90;;;;;;5073244;28;20888;-57
2021/06/21 07:09:13;;;;;;;5.53;1.90;;;23.00;99.90;;;;;;5073434;28;20650;-56
2021/06/21 07:11:39;;;;;;;5.30;1.90;;;22.90;99.90;;;;;;5055045;28;20209;-59
2021/06/21 07:14:06;;;;;;;4.80;2.27;;;23.00;99.90;;;;;;5064999;28;20190;-58
2021/06/21 07:16:32;;;;;;;5.50;2.00;;;23.10;99.90;;;;;;5073197;28;20407;-58
2021/06/21 07:18:59;;;;;;;7.67;2.23;;;23.10;99.90;;;;;;5073507;28;20821;-58
2021/06/21 07:21:25;;;;;;;4.50;1.70;;;23.00;99.90;;;;;;5073221;28;20424;-57
2021/06/21 07:23:50;;;;;;;5.30;2.10;;;23.20;99.90;;;;;;5072708;28;20408;-56
2021/06/21 07:26:17;;;;;;;4.73;2.30;;;23.30;99.90;;;;;;5072999;28;20431;-59
2021/06/21 07:28:43;;;;;;;3.10;1.97;;;23.40;99.90;;;;;;5072278;28;20673;-58
2021/06/21 07:31:09;;;;;;;6.40;1.70;;;23.20;99.90;;;;;;5072574;28;20452;-57
2021/06/21 07:33:35;;;;;;;3.27;1.57;;;23.40;99.90;;;;;;5072964;28;20219;-57
2021/06/21 07:36:01;;;;;;;4.70;1.57;;;23.60;99.90;;;;;;5072861;28;20467;-59
2021/06/21 07:38:26;;;;;;;2.90;1.53;;;24.00;99.90;;;;;;5072652;28;20170;-59
2021/06/21 07:40:52;;;;;;;2.60;1.60;;;23.90;99.90;;;;;;5072771;28;20166;-57
2021/06/21 07:43:18;;;;;;;4.83;1.90;;;24.00;99.90;;;;;;5072154;28;20181;-58
2021/06/21 07:45:45;;;;;;;4.30;1.47;;;24.00;99.90;;;;;;5072814;28;20200;-59
2021/06/21 07:48:11;;;;;;;3.90;2.03;;;24.30;99.90;;;;;;5072742;28;20178;-59
2021/06/21 07:50:37;;;;;;;4.00;1.60;;;24.30;99.90;;;;;;5072207;28;20521;-59
2021/06/21 07:53:03;;;;;;;2.70;1.40;;;24.50;99.90;;;;;;5072472;28;20273;-58
2021/06/21 07:55:29;;;;;;;4.10;1.90;;;24.50;99.90;;;;;;5072600;28;20404;-59
2021/06/21 07:57:56;;;;;;;5.97;1.90;;;24.70;99.90;;;;;;5072533;28;20779;-58
2021/06/21 08:00:24;;;;;;;3.10;1.50;;;24.80;99.90;;;;;;5072051;28;21025;-58
2021/06/21 08:02:50;;;;;;;4.33;1.70;;;24.70;99.90;;;;;;5072663;28;20455;-58
2021/06/21 08:05:16;;;;;;;3.93;1.63;;;24.70;99.90;;;;;;5071044;28;20431;-58
2021/06/21 08:07:42;;;;;;;6.13;1.80;;;24.80;99.90;;;;;;5072460;28;20461;-57
2021/06/21 08:10:08;;;;;;;2.93;1.70;;;25.00;99.90;;;;;;5075472;28;20185;-60
2021/06/21 08:12:34;;;;;;;6.97;2.00;;;25.10;99.90;;;;;;5074884;28;20866;-58
2021/06/21 08:14:59;;;;;;;2.37;1.40;;;25.20;99.90;;;;;;5075966;28;20477;-57
2021/06/21 08:17:25;;;;;;;4.57;1.40;;;25.60;99.90;;;;;;5076212;28;20170;-57
2021/06/21 08:19:50;;;;;;;4.60;1.83;;;25.30;99.90;;;;;;5076079;28;20177;-59
2021/06/21 08:22:21;;;;;;;3.47;1.67;;;25.20;99.90;;;;;;5075926;28;20597;-55
2021/06/21 08:24:48;;;;;;;3.20;1.80;;;25.00;99.90;;;;;;5075988;28;20633;-56
2021/06/21 08:27:14;;;;;;;4.23;2.23;;;25.50;99.90;;;;;;5076405;28;20840;-57
2021/06/21 08:29:40;;;;;;;7.20;2.13;;;25.60;99.90;;;;;;5075594;28;20492;-58
2021/06/21 08:32:05;;;;;;;3.83;1.37;;;25.30;99.90;;;;;;5075950;28;20450;-58
2021/06/21 08:34:31;;;;;;;3.53;1.80;;;25.40;99.90;;;;;;5075810;28;20175;-57
2021/06/21 08:36:57;;;;;;;4.13;2.17;;;25.30;99.90;;;;;;5058141;28;20215;-56
2021/06/21 08:39:22;;;;;;;3.90;1.50;;;25.20;99.90;;;;;;5075699;28;20165;-58
2021/06/21 08:41:48;;;;;;;4.70;1.60;;;25.10;99.90;;;;;;5074845;28;20178;-58
2021/06/21 08:44:13;;;;;;;4.30;2.23;;;25.10;99.90;;;;;;5075445;28;20166;-57
2021/06/21 08:46:41;;;;;;;7.60;1.90;;;25.10;99.90;;;;;;5075723;28;20214;-58
2021/06/21 08:49:09;;;;;;;4.13;1.90;;;25.20;99.90;;;;;;5075324;28;20643;-59
2021/06/21 08:51:36;;;;;;;1.80;1.50;;;25.50;99.90;;;;;;5075450;28;20485;-59
2021/06/21 08:54:02;;;;;;;2.20;1.60;;;25.30;99.90;;;;;;5075564;28;20964;-59
2021/06/21 08:56:28;;;;;;;3.53;1.83;;;25.40;99.90;;;;;;5074891;28;20412;-58
2021/06/21 08:58:53;;;;;;;4.03;1.80;;;25.20;99.90;;;;;;5074832;28;20814;-55
2021/06/21 09:01:19;;;;;;;5.00;2.00;;;25.10;99.90;;;;;;5074962;28;20206;-56
2021/06/21 09:03:46;;;;;;;3.53;1.80;;;24.80;99.90;;;;;;5089516;22;20217;-56
2021/06/21 09:06:22;;;;;;;3.13;1.97;;;25.00;99.90;;;;;;5075396;28;20407;-54
2021/06/21 09:08:58;;;;;;;4.07;1.50;;;25.20;99.90;;;;;;5077676;28;20740;-56
2021/06/21 09:11:47;;;;;;;3.90;2.10;;;24.90;99.90;;;;;;5075039;28;20444;-56
2021/06/21 09:14:25;;;;;;;2.87;1.67;;;25.00;99.90;;;;;;5054709;28;20409;-56
2021/06/21 09:17:02;;;;;;;5.50;2.27;;;25.00;99.90;;;;;;5055109;28;20408;-55
2021/06/21 09:19:29;;;;;;;4.20;1.73;;;25.20;99.90;;;;;;5054143;28;20432;-57
2021/06/21 09:21:55;;;;;;;5.00;2.20;;;25.40;99.90;;;;;;5054597;28;20425;-57
2021/06/21 09:24:24;;;;;;;5.00;2.03;;;25.50;99.90;;;;;;5054816;28;20921;-57
2021/06/21 09:26:54;;;;;;;2.53;1.43;;;25.50;99.90;;;;;;5054872;28;20171;-57
2021/06/21 09:29:34;;;;;;;3.03;1.67;;;25.60;99.90;;;;;;5054147;28;20444;-54
2021/06/21 09:32:00;;;;;;;6.97;1.90;;;25.30;99.90;;;;;;5054631;28;20452;-55
2021/06/21 09:34:26;;;;;;;3.20;1.47;;;25.50;99.90;;;;;;5054892;28;20547;-58
2021/06/21 09:36:54;;;;;;;2.37;1.80;;;25.60;99.90;;;;;;5054733;28;20159;-56
2021/06/21 09:39:26;;;;;;;2.70;1.80;;;25.90;99.90;;;;;;5054601;28;20403;-56
2021/06/21 09:42:11;;;;;;;4.13;1.70;;;26.10;99.90;;;;;;5054776;28;20425;-58
2021/06/21 09:44:53;;;;;;;3.23;1.90;;;26.20;99.90;;;;;;5055046;28;20394;-57
2021/06/21 09:47:21;;;;;;;3.03;1.57;;;26.20;99.50;;;;;;5054620;28;20774;-57
2021/06/21 09:50:05;;;;;;;3.20;1.40;;;26.30;99.90;;;;;;5054252;28;20463;-58
2021/06/21 09:52:44;;;;;;;3.70;2.07;;;26.50;99.90;;;;;;5054068;28;20527;-57
2021/06/21 09:55:10;;;;;;;3.40;1.70;;;26.30;99.30;;;;;;5054128;28;20393;-58
2021/06/21 09:57:37;;;;;;;4.43;1.90;;;26.50;99.40;;;;;;5053564;28;20405;-58
2021/06/21 10:00:11;;;;;;;6.93;2.00;;;26.70;99.30;;;;;;5035874;28;20635;-58
2021/06/21 10:02:37;;;;;;;6.10;1.80;;;26.80;99.30;;;;;;5053497;28;20941;-58
2021/06/21 10:05:04;;;;;;;4.57;2.10;;;26.80;99.20;;;;;;5035895;28;20412;-58
2021/06/21 10:07:36;;;;;;;3.53;1.57;;;26.80;99.10;;;;;;5053811;28;20185;-57
2021/06/21 10:10:11;;;;;;;6.10;2.20;;;26.90;99.00;;;;;;5053861;28;20849;-58
2021/06/21 10:12:38;;;;;;;4.80;1.70;;;27.00;98.60;;;;;;5053304;28;20497;-57
2021/06/21 10:15:06;;;;;;;2.70;1.47;;;26.90;98.40;;;;;;5053961;28;20417;-57
2021/06/21 10:17:31;;;;;;;4.23;1.60;;;27.00;99.70;;;;;;5053527;28;20416;-57
2021/06/21 10:19:57;;;;;;;5.00;2.07;;;27.10;99.20;;;;;;5054353;28;20405;-58
2021/06/21 10:22:24;;;;;;;3.87;1.63;;;27.20;99.20;;;;;;5053579;28;20671;-58
2021/06/21 10:24:55;;;;;;;2.83;1.73;;;27.50;99.20;;;;;;5053884;28;20217;-58
2021/06/21 10:27:22;;;;;;;4.30;1.90;;;27.70;97.90;;;;;;5053027;28;20906;-58
2021/06/21 10:29:49;;;;;;;3.50;1.63;;;27.70;98.40;;;;;;5053916;28;20410;-58
2021/06/21 10:32:16;;;;;;;3.03;1.60;;;27.70;97.80;;;;;;5053031;28;20457;-58
2021/06/21 10:34:42;;;;;;;4.37;1.67;;;28.10;97.70;;;;;;5052679;28;20421;-57
2021/06/21 10:37:21;;;;;;;1.90;1.50;;;28.30;96.40;;;;;;5051960;28;20428;-58
2021/06/21 10:39:48;;;;;;;2.60;1.70;;;28.00;96.60;;;;;;5053800;28;20401;-58
2021/06/21 10:42:16;;;;;;;3.50;1.67;;;27.90;96.20;;;;;;5053214;28;20518;-56
2021/06/21 10:44:47;;;;;;;2.70;1.40;;;28.00;95.80;;;;;;5053279;28;20409;-55
2021/06/21 10:47:26;;;;;;;4.40;1.60;;;27.90;95.40;;;;;;5053565;28;20454;-57
2021/06/21 10:49:59;;;;;;;3.50;1.83;;;28.00;96.00;;;;;;5053409;28;20531;-57
2021/06/21 10:52:39;;;;;;;4.80;1.77;;;28.00;95.20;;;;;;5053018;28;20998;-57
2021/06/21 10:55:24;;;;;;;3.63;1.27;;;28.00;94.90;;;;;;5053489;28;20471;-58
2021/06/21 10:57:58;;;;;;;1.83;1.30;;;27.90;95.60;;;;;;5052946;28;20408;-57
2021/06/21 11:00:29;;;;;;;2.93;1.50;;;28.10;95.20;;;;;;5053518;28;20489;-56
2021/06/21 11:02:55;;;;;;;2.40;1.40;;;27.80;94.80;;;;;;5052338;28;20447;-56
2021/06/21 11:05:40;;;;;;;4.30;1.77;;;27.70;95.20;;;;;;5052427;28;20401;-56
2021/06/21 11:08:20;;;;;;;2.93;1.70;;;28.10;96.50;;;;;;5052480;28;20174;-59
2021/06/21 11:10:48;;;;;;;5.53;1.50;;;28.30;94.40;;;;;;5069109;28;20448;-58
2021/06/21 11:13:34;;;;;;;3.53;1.90;;;28.30;95.30;;;;;;5058856;28;20559;-60
2021/06/21 11:16:15;;;;;;;2.80;1.10;;;28.50;95.60;;;;;;5052824;28;20414;-58
2021/06/21 11:18:42;;;;;;;3.03;1.27;;;28.50;93.80;;;;;;5051541;28;20421;-58
2021/06/21 11:21:20;;;;;;;3.43;1.50;;;28.70;93.00;;;;;;5052649;28;20470;-56
2021/06/21 11:23:51;;;;;;;4.50;1.67;;;28.80;95.40;;;;;;5052133;28;20424;-58
2021/06/21 11:26:17;;;;;;;7.93;1.80;;;28.70;93.60;;;;;;5052340;28;20394;-58
2021/06/21 11:28:47;;;;;;;1.87;1.60;;;28.50;93.80;;;;;;5051967;28;20428;-56
2021/06/21 11:31:22;;;;;;;2.27;1.50;;;28.60;93.00;;;;;;5052314;28;20218;-58
2021/06/21 11:33:55;;;;;;;2.80;1.80;;;29.00;92.40;;;;;;5051558;28;20417;-58
2021/06/21 11:36:38;;;;;;;2.17;1.10;;;29.90;93.20;;;;;;5052565;28;20374;-58
2021/06/21 11:39:18;;;;;;;2.50;1.23;;;31.60;88.50;;;;;;5052114;28;20400;-57
2021/06/21 11:41:56;;;;;;;2.40;1.73;;;33.50;82.60;;;;;;5051714;28;20447;-58
2021/06/21 11:44:36;;;;;;;6.47;1.63;;;34.10;76.10;;;;;;5055570;28;20393;-58
2021/06/21 11:47:23;;;;;;;2.57;1.30;;;33.10;79.80;;;;;;5055234;28;20912;-58
2021/06/21 11:49:51;;;;;;;2.40;1.50;;;32.60;76.80;;;;;;5055323;28;20845;-58
2021/06/21 11:52:22;;;;;;;2.43;1.30;;;32.40;81.10;;;;;;5055300;28;20456;-58
2021/06/21 11:54:49;;;;;;;3.37;1.70;;;32.50;77.30;;;;;;5054590;28;20413;-58
2021/06/21 11:57:16;;;;;;;3.40;1.57;;;34.10;73.10;;;;;;5055012;28;20415;-60
2021/06/21 11:59:45;;;;;;;5.40;2.00;;;35.90;68.20;;;;;;5055341;28;20412;-57
2021/06/21 12:02:12;;;;;;;2.93;1.47;;;35.70;67.10;;;;;;5052750;28;65207;-58
2021/06/21 12:04:39;;;;;;;3.83;1.70;;;34.00;72.10;;;;;;5055182;28;20448;-57
2021/06/21 12:07:06;;;;;;;4.00;1.90;;;33.40;73.90;;;;;;5056457;28;20409;-58
2021/06/21 12:09:53;;;;;;;4.07;1.70;;;33.20;75.70;;;;;;5056504;28;20401;-56
2021/06/21 12:12:30;;;;;;;2.97;1.60;;;33.70;72.60;;;;;;5056047;28;20460;-57
2021/06/21 12:14:56;;;;;;;3.80;1.50;;;33.80;72.70;;;;;;5056302;28;20446;-57
2021/06/21 12:17:27;;;;;;;5.80;1.97;;;33.40;71.80;;;;;;5056052;28;20405;-57
2021/06/21 12:20:19;;;;;;;3.60;2.07;;;34.40;71.90;;;;;;5038380;28;20397;-57
2021/06/21 12:22:59;;;;;;;2.60;1.50;;;35.70;69.50;;;;;;5051040;28;20437;-58
2021/06/21 12:25:28;;;;;;;2.40;1.47;;;37.20;62.70;;;;;;5056329;28;20484;-58
2021/06/21 12:27:54;;;;;;;1.90;1.47;;;37.10;62.80;;;;;;5057061;28;20860;-58
2021/06/21 12:30:38;;;;;;;3.37;1.90;;;35.10;65.50;;;;;;5056220;28;20906;-58
2021/06/21 12:33:30;;;;;;;2.03;1.40;;;33.70;68.20;;;;;;5055924;28;20436;-58
2021/06/21 12:36:28;;;;;;;6.47;1.97;;;32.60;71.20;;;;;;5055465;28;20419;-56
2021/06/21 12:39:03;;;;;;;1.93;1.43;;;32.30;74.90;;;;;;5055918;28;20489;-58
2021/06/21 12:41:31;;;;;;;5.53;2.07;;;34.10;71.00;;;;;;5055910;28;20396;-58
2021/06/21 12:44:07;;;;;;;2.40;1.63;;;33.70;68.20;;;;;;5055583;28;20420;-58
2021/06/21 12:46:45;;;;;;;4.33;1.97;;;32.70;71.60;;;;;;5055904;28;20450;-58
2021/06/21 12:49:16;;;;;;;2.40;1.40;;;32.00;71.60;;;;;;5055985;28;20381;-58
2021/06/21 12:51:43;;;;;;;3.07;1.73;;;31.60;72.30;;;;;;5056168;28;20444;-58
2021/06/21 12:54:11;;;;;;;4.27;1.57;;;31.00;73.40;;;;;;5054558;28;20401;-57
2021/06/21 12:56:40;;;;;;;3.43;1.70;;;30.70;75.60;;;;;;5054980;28;20415;-56